createdAt,value
2023-12-16T00:50:21.456Z,46.82
2023-12-16T00:52:48.288Z,46.38
2023-12-16T00:55:15.087Z,46.23
2023-12-16T00:57:42.099Z,45.90
2023-12-16T01:00:09.356Z,46.00
2023-12-16T01:02:36.141Z,45.70
2023-12-16T01:05:02.968Z,45.75
2023-12-16T01:07:29.943Z,45.58
2023-12-16T01:09:56.730Z,45.50
2023-12-16T01:12:23.593Z,45.28
2023-12-16T01:14:50.689Z,45.43
2023-12-16T01:17:17.433Z,45.26
2023-12-16T01:19:44.171Z,45.36
2023-12-16T01:22:11.250Z,45.09
2023-12-16T01:24:38.129Z,45.01
2023-12-16T01:27:06.204Z,44.97
2023-12-16T01:29:32.956Z,45.08
2023-12-16T01:31:59.677Z,44.95
2023-12-16T01:34:26.389Z,44.87
2023-12-16T01:36:53.199Z,44.81
2023-12-16T01:39:19.849Z,44.73
2023-12-16T01:41:46.551Z,44.81
2023-12-16T01:44:13.219Z,44.63
2023-12-16T01:46:40.798Z,44.43
2023-12-16T01:49:07.987Z,44.42
2023-12-16T01:51:34.895Z,44.44
2023-12-16T01:54:02.149Z,44.30
2023-12-16T01:56:30.305Z,44.19
2023-12-16T01:58:57.539Z,44.00
2023-12-16T02:01:24.482Z,44.00
2023-12-16T02:03:52.392Z,44.14
2023-12-16T02:06:21.100Z,44.03
2023-12-16T02:08:48.509Z,43.96
2023-12-16T02:11:15.378Z,44.03
2023-12-16T02:13:42.261Z,44.20
2023-12-16T02:16:11.243Z,44.24
2023-12-16T02:18:38.510Z,44.11
2023-12-16T02:21:05.644Z,44.40
2023-12-16T02:23:32.346Z,44.29
2023-12-16T02:25:59.629Z,44.28
2023-12-16T02:28:26.451Z,44.35
2023-12-16T02:30:53.264Z,44.24
2023-12-16T02:33:20.096Z,44.30
2023-12-16T02:35:46.859Z,44.39
2023-12-16T02:38:13.521Z,44.65
2023-12-16T02:40:43.531Z,44.14
2023-12-16T02:43:10.915Z,44.63
2023-12-16T02:45:37.784Z,44.50
2023-12-16T02:48:04.871Z,44.74
2023-12-16T02:50:31.592Z,44.63
2023-12-16T02:52:58.393Z,44.69
2023-12-16T02:55:25.169Z,44.74
2023-12-16T02:57:51.943Z,44.84
2023-12-16T03:00:18.817Z,44.67
2023-12-16T03:02:45.605Z,44.68
2023-12-16T03:05:12.411Z,44.90
2023-12-16T03:07:40.321Z,44.69
2023-12-16T03:10:07.671Z,44.87
2023-12-16T03:12:34.533Z,44.80
2023-12-16T03:15:01.281Z,44.76
2023-12-16T03:17:28.058Z,44.94
2023-12-16T03:19:54.764Z,44.94
2023-12-16T03:22:21.633Z,44.99
2023-12-16T03:24:48.544Z,45.13
2023-12-16T03:27:15.270Z,44.99
2023-12-16T03:29:41.940Z,45.18
2023-12-16T03:32:08.722Z,45.21
2023-12-16T03:34:35.383Z,45.27
2023-12-16T03:37:02.339Z,44.91
2023-12-16T03:39:29.035Z,44.79
2023-12-16T03:41:56.362Z,44.92
2023-12-16T03:44:23.021Z,44.72
2023-12-16T03:46:50.107Z,44.69
2023-12-16T03:49:16.839Z,44.63
2023-12-16T03:51:43.628Z,44.46
2023-12-16T03:54:10.696Z,44.53
2023-12-16T03:56:37.556Z,44.39
2023-12-16T03:59:05.490Z,44.55
2023-12-16T04:01:32.354Z,44.34
2023-12-16T04:03:59.038Z,44.40
2023-12-16T04:06:26.741Z,44.45
2023-12-16T04:08:53.521Z,44.32
2023-12-16T04:11:20.297Z,44.44
2023-12-16T04:13:46.930Z,44.43
2023-12-16T04:16:13.670Z,44.32
2023-12-16T04:18:40.509Z,44.51
2023-12-16T04:21:07.367Z,44.55
2023-12-16T04:23:34.240Z,44.47
2023-12-16T04:26:00.994Z,44.22
2023-12-16T04:28:27.929Z,44.60
2023-12-16T04:30:54.814Z,44.38
2023-12-16T04:33:21.615Z,44.51
2023-12-16T04:35:48.462Z,44.58
2023-12-16T04:38:15.172Z,44.47
2023-12-16T04:40:41.954Z,44.84
2023-12-16T04:43:08.798Z,44.58
2023-12-16T04:45:36.805Z,44.67
2023-12-16T04:48:04.052Z,44.82
2023-12-16T04:50:30.985Z,44.98
2023-12-16T04:52:57.711Z,44.80
2023-12-16T04:55:24.482Z,44.91
2023-12-16T04:57:51.231Z,44.62
2023-12-16T05:00:18.307Z,44.75
2023-12-16T05:02:45.004Z,44.82
2023-12-16T05:05:11.719Z,44.75
2023-12-16T05:07:40.720Z,44.54
2023-12-16T05:10:11.678Z,44.66
2023-12-16T05:12:41.053Z,44.53
2023-12-16T05:15:08.298Z,44.55
2023-12-16T05:17:35.115Z,44.47
2023-12-16T05:20:02.094Z,44.65
2023-12-16T05:22:34.527Z,44.64
2023-12-16T05:25:03.249Z,44.55
2023-12-16T05:27:30.181Z,44.77
2023-12-16T05:29:58.708Z,44.61
2023-12-16T05:32:25.442Z,44.71
2023-12-16T05:34:53.086Z,44.80
2023-12-16T05:37:19.782Z,44.74
2023-12-16T05:39:47.540Z,44.86
2023-12-16T05:42:14.469Z,44.87
2023-12-16T05:44:41.260Z,45.20
2023-12-16T05:47:08.817Z,44.78
2023-12-16T05:49:36.572Z,44.89
2023-12-16T05:52:03.728Z,45.00
2023-12-16T05:54:30.399Z,44.95
2023-12-16T05:56:57.163Z,44.99
2023-12-16T05:59:23.883Z,44.98
2023-12-16T06:01:50.708Z,44.95
2023-12-16T06:04:17.468Z,45.13
2023-12-16T06:06:44.435Z,45.29
2023-12-16T06:09:11.092Z,45.02
2023-12-16T06:11:37.802Z,45.08
2023-12-16T06:14:04.804Z,45.23
2023-12-16T06:16:31.793Z,45.11
2023-12-16T06:18:59.026Z,45.14
2023-12-16T06:21:25.846Z,45.06
2023-12-16T06:23:52.563Z,45.18
2023-12-16T06:26:19.521Z,45.20
2023-12-16T06:28:46.166Z,45.49
2023-12-16T06:31:17.464Z,45.20
2023-12-16T06:33:44.648Z,45.16
2023-12-16T06:36:11.446Z,45.21
2023-12-16T06:38:38.484Z,44.87
2023-12-16T06:41:05.845Z,45.32
2023-12-16T06:43:32.627Z,45.32
2023-12-16T06:46:00.977Z,45.42
2023-12-16T06:48:28.125Z,45.19
2023-12-16T06:50:58.694Z,45.20
2023-12-16T06:53:25.818Z,45.31
2023-12-16T06:55:54.458Z,45.12
2023-12-16T06:58:21.956Z,45.13
2023-12-16T07:00:49.099Z,45.10
2023-12-16T07:03:16.342Z,45.24
2023-12-16T07:05:43.357Z,45.00
2023-12-16T07:08:10.114Z,44.91
2023-12-16T07:10:37.043Z,45.06
2023-12-16T07:13:03.892Z,44.91
2023-12-16T07:15:30.882Z,44.96
2023-12-16T07:17:57.619Z,44.87
2023-12-16T07:20:24.341Z,44.76
2023-12-16T07:22:51.161Z,44.91
2023-12-16T07:25:18.503Z,44.97
2023-12-16T07:27:45.391Z,44.60
2023-12-16T07:30:12.969Z,44.72
2023-12-16T07:32:41.848Z,44.98
2023-12-16T07:35:14.246Z,44.72
2023-12-16T07:37:42.116Z,44.77
2023-12-16T07:40:10.078Z,44.71
2023-12-16T07:42:41.019Z,44.79
2023-12-16T07:45:09.594Z,44.68
2023-12-16T07:47:36.857Z,44.96
2023-12-16T07:50:04.836Z,45.12
2023-12-16T07:52:31.961Z,44.96
2023-12-16T07:54:58.960Z,45.09
2023-12-16T07:57:25.845Z,45.00
2023-12-16T07:59:54.635Z,45.17
2023-12-16T08:02:22.222Z,45.13
2023-12-16T08:04:50.570Z,44.92
2023-12-16T08:07:17.413Z,44.79
2023-12-16T08:09:44.294Z,45.14
2023-12-16T08:12:11.169Z,45.21
2023-12-16T08:14:38.542Z,45.36
2023-12-16T08:17:05.383Z,45.31
2023-12-16T08:19:32.330Z,45.37
2023-12-16T08:22:01.375Z,45.51
2023-12-16T08:24:30.668Z,45.43
2023-12-16T08:26:57.633Z,45.99
2023-12-16T08:29:24.334Z,45.75
2023-12-16T08:31:51.565Z,45.81
2023-12-16T08:34:19.339Z,45.73
2023-12-16T08:36:47.863Z,45.88
2023-12-16T08:39:14.581Z,45.92
2023-12-16T08:41:41.620Z,45.97
2023-12-16T08:44:08.324Z,45.98
2023-12-16T08:46:41.090Z,46.16
2023-12-16T08:49:08.046Z,46.36
2023-12-16T08:51:35.175Z,46.39
2023-12-16T08:54:01.924Z,46.45
2023-12-16T08:56:28.783Z,46.53
2023-12-16T08:58:55.712Z,46.76
2023-12-16T09:01:22.650Z,46.52
2023-12-16T09:03:49.460Z,46.65
2023-12-16T09:06:16.262Z,46.53
2023-12-16T09:08:43.080Z,46.74
2023-12-16T09:11:10.692Z,46.88
2023-12-16T09:13:37.831Z,46.81
2023-12-16T09:16:05.507Z,46.93
2023-12-16T09:18:32.527Z,47.05
2023-12-16T09:20:59.246Z,46.98
2023-12-16T09:23:26.834Z,46.90
2023-12-16T09:25:54.448Z,47.09
2023-12-16T09:28:21.289Z,47.03
2023-12-16T09:30:48.217Z,46.95
2023-12-16T09:33:15.064Z,47.03
2023-12-16T09:35:41.866Z,47.00
2023-12-16T09:38:08.671Z,47.30
2023-12-16T09:40:35.652Z,47.13
2023-12-16T09:43:15.725Z,47.26
2023-12-16T09:45:46.247Z,47.36
2023-12-16T09:48:15.821Z,47.34
2023-12-16T09:50:43.195Z,47.22
2023-12-16T09:53:10.492Z,47.25
2023-12-16T09:55:37.758Z,47.46
2023-12-16T09:58:05.675Z,47.34
2023-12-16T10:00:33.069Z,47.48
2023-12-16T10:03:01.017Z,47.69
2023-12-16T10:05:29.788Z,47.82
2023-12-16T10:08:06.402Z,47.83
2023-12-16T10:10:33.642Z,47.94
2023-12-16T10:13:05.539Z,47.91
2023-12-16T10:15:33.948Z,47.90
2023-12-16T10:18:03.181Z,47.94
2023-12-16T10:20:31.085Z,48.08
2023-12-16T10:23:02.003Z,48.09
2023-12-16T10:25:32.272Z,47.95
2023-12-16T10:28:01.854Z,47.94
2023-12-16T10:30:28.597Z,47.89
2023-12-16T10:33:03.531Z,48.07
2023-12-16T10:35:31.723Z,48.01
2023-12-16T10:37:58.955Z,48.03
2023-12-16T10:40:26.385Z,47.97
2023-12-16T10:42:53.327Z,47.85
2023-12-16T10:45:20.241Z,48.01
2023-12-16T10:47:51.851Z,47.97
2023-12-16T10:50:22.374Z,48.17
2023-12-16T10:53:00.993Z,47.75
2023-12-16T10:55:37.681Z,47.87
2023-12-16T10:58:13.624Z,47.88
2023-12-16T11:00:43.111Z,48.27
2023-12-16T11:03:27.200Z,48.16
2023-12-16T11:06:17.566Z,48.32
2023-12-16T11:08:46.296Z,48.34
2023-12-16T11:11:13.539Z,48.40
2023-12-16T11:13:41.578Z,48.54
2023-12-16T11:16:18.699Z,48.32
2023-12-16T11:18:50.161Z,47.92
2023-12-16T11:21:20.571Z,47.65
2023-12-16T11:23:47.641Z,47.64
2023-12-16T11:26:17.333Z,47.27
2023-12-16T11:28:44.241Z,47.11
2023-12-16T11:31:13.993Z,47.02
2023-12-16T11:33:45.161Z,46.78
2023-12-16T11:36:13.189Z,46.98
2023-12-16T11:38:45.509Z,46.72
2023-12-16T11:41:38.947Z,46.55
2023-12-16T11:44:05.939Z,46.58
2023-12-16T11:46:40.558Z,46.60
2023-12-16T11:49:11.955Z,46.14
2023-12-16T11:51:40.181Z,46.28
2023-12-16T11:54:08.476Z,46.18
2023-12-16T11:56:36.233Z,46.18
2023-12-16T11:59:04.836Z,46.01
2023-12-16T12:01:33.736Z,45.76
2023-12-16T12:04:03.778Z,45.68
2023-12-16T12:06:31.703Z,45.75
2023-12-16T12:08:58.493Z,45.62
2023-12-16T12:11:25.260Z,45.52
2023-12-16T12:13:53.961Z,45.54
2023-12-16T12:16:22.587Z,45.74
2023-12-16T12:18:49.778Z,45.70
2023-12-16T12:21:17.058Z,45.71
2023-12-16T12:23:44.090Z,45.78
2023-12-16T12:26:12.089Z,45.81
2023-12-16T12:28:39.177Z,45.78
2023-12-16T13:25:58.035Z,43.55
2023-12-16T13:28:25.743Z,43.17
2023-12-16T13:30:53.078Z,42.79
2023-12-16T13:33:21.494Z,42.25
2023-12-16T13:35:49.369Z,41.94
2023-12-16T13:38:16.322Z,41.32
2023-12-16T13:40:46.788Z,41.09
2023-12-16T13:43:19.256Z,40.69
2023-12-16T13:45:45.918Z,40.56
2023-12-16T13:48:12.814Z,40.22
2023-12-16T13:50:39.593Z,40.18
2023-12-16T14:05:08.174Z,40.29
2023-12-16T14:07:36.960Z,40.03
2023-12-16T14:10:04.033Z,40.15
2023-12-16T14:12:30.708Z,39.79
2023-12-16T14:14:57.507Z,39.87
2023-12-16T14:17:24.318Z,39.98
2023-12-16T14:19:51.158Z,40.16
2023-12-16T14:22:17.894Z,39.70
2023-12-16T14:24:44.625Z,39.92
2023-12-16T14:27:11.358Z,39.92
2023-12-16T14:29:38.157Z,40.01
2023-12-16T14:32:05.319Z,40.03
2023-12-16T14:34:32.293Z,40.14
2023-12-16T14:36:59.171Z,40.00
2023-12-16T14:39:25.849Z,40.29
2023-12-16T14:41:52.738Z,40.28
2023-12-16T14:44:19.593Z,40.33
2023-12-16T14:46:46.430Z,40.35
2023-12-16T14:49:13.305Z,40.64
2023-12-16T14:51:40.321Z,40.55
2023-12-16T14:54:07.223Z,40.52
2023-12-16T14:56:34.180Z,40.63
2023-12-16T14:59:01.238Z,40.84
2023-12-16T15:01:28.878Z,40.88
2023-12-16T15:03:56.476Z,41.08
2023-12-16T15:06:30.291Z,41.22
2023-12-16T15:08:59.600Z,41.21
2023-12-16T15:11:26.704Z,41.21
2023-12-16T15:13:53.445Z,40.97
2023-12-16T15:16:21.193Z,41.16
2023-12-16T15:18:49.854Z,41.18
2023-12-16T15:21:17.906Z,41.26
2023-12-16T15:23:47.032Z,41.17
2023-12-16T15:26:14.391Z,41.01
2023-12-16T15:28:41.519Z,40.97
2023-12-16T15:31:08.498Z,41.09
2023-12-16T15:33:35.934Z,41.11
2023-12-16T15:36:03.022Z,40.62
2023-12-16T15:38:30.007Z,40.84
2023-12-16T15:40:57.201Z,40.73
2023-12-16T15:43:24.107Z,40.56
2023-12-16T15:45:50.883Z,40.62
2023-12-16T15:48:17.880Z,40.66
2023-12-16T15:50:45.101Z,40.64
2023-12-16T15:53:12.528Z,40.49
2023-12-16T15:55:39.306Z,40.81
2023-12-16T15:58:05.989Z,40.90
2023-12-16T16:00:32.762Z,41.02
2023-12-16T16:03:00.946Z,40.79
2023-12-16T16:05:28.213Z,40.74
2023-12-16T16:07:55.103Z,40.74
2023-12-16T16:10:22.227Z,40.65
2023-12-16T16:12:49.373Z,40.67
2023-12-16T16:15:18.050Z,40.41
2023-12-16T16:17:47.686Z,40.15
2023-12-16T16:20:15.470Z,40.42
2023-12-16T16:22:42.391Z,40.57
2023-12-16T16:25:11.247Z,40.38
2023-12-16T16:27:39.519Z,40.26
2023-12-16T16:30:07.550Z,40.43
2023-12-16T16:32:34.412Z,40.45
2023-12-16T16:35:01.270Z,40.11
2023-12-16T16:37:31.289Z,40.35
2023-12-16T16:39:59.972Z,40.10
2023-12-16T16:42:28.473Z,40.01
2023-12-16T16:44:56.257Z,40.01
2023-12-16T16:47:23.297Z,40.02
2023-12-16T16:49:50.318Z,40.14
2023-12-16T16:52:17.248Z,39.93
2023-12-16T16:54:44.802Z,39.72
2023-12-16T16:57:13.001Z,39.89
2023-12-16T16:59:40.829Z,40.05
2023-12-16T17:02:08.539Z,40.09
2023-12-16T17:04:36.183Z,40.07
2023-12-16T17:07:03.366Z,40.23
2023-12-16T17:09:30.588Z,40.22
2023-12-16T17:11:57.622Z,40.35
2023-12-16T17:14:24.526Z,40.47
2023-12-16T17:16:51.361Z,40.29
2023-12-16T17:19:19.270Z,40.54
2023-12-16T17:21:48.718Z,40.30
2023-12-16T17:24:16.852Z,40.45
2023-12-16T17:26:45.012Z,40.04
2023-12-16T17:29:12.674Z,40.15
2023-12-16T17:31:41.180Z,40.40
2023-12-16T17:34:09.646Z,40.20
2023-12-16T17:36:36.796Z,40.28
2023-12-16T17:39:03.614Z,40.45
2023-12-16T17:41:32.393Z,40.68
2023-12-16T17:44:00.953Z,40.50
2023-12-16T17:46:28.335Z,40.76
2023-12-16T17:48:58.026Z,40.57
2023-12-16T17:51:24.990Z,40.77
2023-12-16T17:53:52.231Z,40.65
2023-12-16T17:56:19.145Z,40.91
2023-12-16T17:58:45.789Z,40.62
2023-12-16T18:01:14.426Z,40.60
2023-12-16T18:03:41.647Z,40.58
2023-12-16T18:06:09.368Z,40.57
2023-12-16T18:25:33.972Z,40.42
2023-12-16T18:28:02.704Z,40.29
2023-12-16T18:30:30.075Z,40.26
2023-12-16T18:32:57.191Z,40.18
2023-12-16T18:35:23.998Z,40.20
2023-12-16T18:37:50.789Z,40.33
2023-12-16T18:40:27.206Z,40.34
2023-12-16T18:42:58.907Z,40.14
2023-12-16T18:45:25.782Z,40.25
2023-12-16T18:47:52.696Z,40.13
2023-12-16T18:50:19.464Z,40.04
2023-12-16T18:52:46.286Z,40.04
2023-12-16T18:55:13.584Z,40.14
2023-12-16T18:57:40.558Z,40.15
2023-12-16T19:00:10.219Z,40.14
2023-12-16T19:02:37.072Z,40.01
2023-12-16T19:05:04.050Z,40.28
2023-12-16T19:07:30.809Z,40.12
2023-12-16T19:09:57.488Z,40.01
2023-12-16T19:12:24.206Z,40.15
2023-12-16T19:14:50.993Z,40.01
2023-12-16T19:17:18.026Z,39.87
2023-12-16T19:19:46.173Z,39.77
2023-12-16T19:22:13.971Z,40.15
2023-12-16T19:24:41.634Z,40.18
2023-12-16T19:27:09.201Z,40.20
2023-12-16T19:29:38.271Z,40.16
2023-12-16T19:32:06.080Z,40.17
2023-12-16T19:34:32.829Z,40.40
2023-12-16T19:36:59.556Z,40.17
2023-12-16T19:39:27.695Z,40.07
2023-12-16T19:41:56.179Z,40.27
2023-12-16T19:44:24.047Z,40.27
2023-12-16T19:46:51.248Z,40.21
2023-12-16T19:49:18.470Z,40.14
2023-12-16T19:51:45.263Z,40.25
2023-12-16T19:54:12.321Z,40.19
2023-12-16T19:56:39.170Z,40.22
2023-12-16T19:59:06.166Z,40.26
2023-12-16T20:01:32.880Z,40.15
2023-12-16T20:03:59.597Z,40.09
2023-12-16T20:06:28.680Z,40.24
2023-12-16T20:08:55.599Z,40.22
2023-12-16T20:11:22.433Z,40.07
2023-12-16T20:13:51.942Z,40.20
2023-12-16T20:16:19.298Z,40.19
2023-12-16T20:18:46.266Z,40.45
2023-12-16T20:21:13.176Z,40.36
2023-12-16T20:23:39.882Z,40.57
2023-12-16T20:26:07.077Z,40.30
2023-12-16T20:28:33.902Z,40.42
2023-12-16T20:31:00.856Z,40.42
2023-12-16T20:33:27.647Z,40.48
2023-12-16T20:35:54.527Z,40.74
2023-12-16T20:38:39.963Z,40.91
2023-12-16T20:41:07.638Z,41.09
2023-12-16T20:43:36.016Z,41.15
2023-12-16T20:46:02.676Z,41.09
2023-12-16T20:48:29.571Z,41.09
2023-12-16T20:50:57.169Z,41.23
2023-12-16T20:53:24.736Z,40.99
2023-12-16T20:55:51.481Z,41.55
2023-12-16T20:58:18.223Z,41.61
2023-12-16T21:00:44.945Z,41.62
2023-12-16T21:03:11.760Z,41.63
2023-12-16T21:05:38.481Z,41.76
2023-12-16T21:08:05.367Z,41.43
2023-12-16T21:10:32.157Z,41.52
2023-12-16T21:12:58.858Z,41.53
2023-12-16T21:15:25.694Z,41.54
2023-12-16T21:17:52.899Z,41.89
2023-12-16T21:20:19.706Z,41.89
2023-12-16T21:22:46.432Z,41.86
2023-12-16T21:25:13.203Z,42.07
2023-12-16T21:27:40.158Z,41.96
2023-12-16T21:30:10.757Z,41.80
2023-12-16T21:32:38.654Z,42.16
2023-12-16T21:35:07.740Z,42.04
2023-12-16T21:37:34.600Z,42.04
2023-12-16T21:40:01.882Z,41.91
2023-12-16T21:42:28.573Z,41.91
2023-12-16T21:44:55.450Z,41.94
2023-12-16T21:47:22.183Z,42.21
2023-12-16T21:49:49.575Z,42.10
2023-12-16T21:52:16.490Z,42.07
2023-12-16T21:54:43.233Z,42.09
2023-12-16T21:57:10.080Z,42.29
2023-12-16T21:59:36.794Z,42.16
2023-12-16T22:02:03.623Z,41.99
2023-12-16T22:04:30.303Z,42.23
2023-12-16T22:06:57.159Z,42.38
2023-12-16T22:09:24.429Z,42.15
2023-12-16T22:11:51.361Z,42.33
2023-12-16T22:14:18.050Z,42.04
2023-12-16T22:16:44.815Z,42.27
2023-12-16T22:19:12.725Z,42.32
2023-12-16T22:21:39.652Z,42.25
2023-12-16T22:24:07.891Z,42.48
2023-12-16T22:26:34.762Z,42.51
2023-12-16T22:29:02.169Z,42.49
2023-12-16T22:31:29.285Z,42.71
2023-12-16T22:33:56.095Z,42.53
2023-12-16T22:39:25.321Z,42.72
2023-12-16T22:41:54.324Z,42.60
2023-12-16T22:44:21.130Z,42.68
2023-12-16T22:46:47.806Z,42.81
2023-12-16T22:49:14.689Z,42.83
2023-12-16T22:51:41.575Z,42.70
2023-12-16T22:54:08.393Z,42.79
2023-12-16T22:56:35.096Z,42.54
2023-12-16T22:59:01.857Z,42.74
2023-12-16T23:01:28.586Z,42.90
2023-12-16T23:03:56.928Z,42.81
2023-12-16T23:06:23.670Z,42.53
2023-12-16T23:08:51.157Z,42.90
2023-12-16T23:11:17.865Z,42.63
2023-12-16T23:13:44.697Z,42.78
2023-12-16T23:16:11.420Z,43.12
2023-12-16T23:18:38.262Z,42.97
2023-12-16T23:21:05.734Z,42.86
2023-12-16T23:23:34.658Z,42.75
2023-12-16T23:26:03.525Z,42.80
2023-12-16T23:28:30.520Z,42.95
2023-12-16T23:31:04.180Z,43.04
2023-12-16T23:33:38.201Z,42.76
2023-12-16T23:36:07.010Z,42.80
2023-12-16T23:38:35.849Z,42.83
2023-12-16T23:41:02.989Z,42.87
2023-12-16T23:43:29.857Z,42.89
2023-12-16T23:45:56.614Z,42.94
2023-12-16T23:48:23.642Z,42.81
2023-12-16T23:50:50.663Z,42.99
2023-12-16T23:53:17.462Z,43.11
2023-12-16T23:55:44.235Z,43.11
2023-12-16T23:58:11.060Z,43.01
